createdAt,value
2017-08-24T00:01:05.660Z,94.80
2017-08-24T00:03:34.192Z,94.90
2017-08-24T00:06:02.869Z,94.90
2017-08-24T00:08:31.292Z,95.00
2017-08-24T00:10:59.761Z,95.00
2017-08-24T00:13:28.433Z,95.10
2017-08-24T00:15:57.199Z,95.20
2017-08-24T00:18:25.997Z,95.10
2017-08-24T00:20:55.919Z,95.30
2017-08-24T00:23:24.353Z,95.20
2017-08-24T00:25:52.980Z,95.30
2017-08-24T00:28:21.503Z,95.40
2017-08-24T00:30:49.901Z,95.30
2017-08-24T00:33:18.504Z,95.40
2017-08-24T00:35:47.080Z,95.50
2017-08-24T00:38:15.883Z,95.60
2017-08-24T00:40:45.213Z,95.50
2017-08-24T00:43:14.143Z,95.70
2017-08-24T00:45:42.945Z,95.80
2017-08-24T00:48:12.674Z,95.80
2017-08-24T00:50:42.858Z,96.20
2017-08-24T00:53:11.386Z,95.70
2017-08-24T00:55:39.906Z,95.90
2017-08-24T00:58:08.517Z,95.80
2017-08-24T01:00:37.563Z,95.90
2017-08-24T01:03:06.286Z,96.10
2017-08-24T01:05:35.065Z,96.10
2017-08-24T01:08:04.154Z,96.20
2017-08-24T01:10:32.813Z,96.20
2017-08-24T01:13:03.915Z,96.40
2017-08-24T01:15:33.261Z,96.60
2017-08-24T01:18:01.748Z,96.70
2017-08-24T01:20:30.542Z,96.60
2017-08-24T01:22:59.577Z,96.40
2017-08-24T01:25:28.868Z,96.50
2017-08-24T01:27:57.668Z,96.50
2017-08-24T01:30:26.315Z,96.40
2017-08-24T01:32:55.118Z,96.50
2017-08-24T01:35:23.609Z,96.50
2017-08-24T01:37:52.153Z,96.30
2017-08-24T01:40:20.898Z,96.40
2017-08-24T01:42:50.441Z,96.50
2017-08-24T01:45:20.600Z,96.30
2017-08-24T01:47:50.163Z,96.30
2017-08-24T01:50:18.968Z,96.80
2017-08-24T01:52:49.205Z,96.60
2017-08-24T01:55:18.780Z,96.50
2017-08-24T01:57:47.219Z,96.60
2017-08-24T02:00:15.855Z,96.50
2017-08-24T02:02:45.653Z,96.40
2017-08-24T02:05:14.457Z,96.40
2017-08-24T02:07:43.286Z,96.40
2017-08-24T02:10:12.027Z,96.60
2017-08-24T02:12:40.825Z,96.50
2017-08-24T02:15:10.557Z,96.50
2017-08-24T02:17:42.192Z,96.50
2017-08-24T02:20:10.937Z,96.50
2017-08-24T02:22:39.626Z,96.30
2017-08-24T02:25:09.420Z,96.40
2017-08-24T02:27:37.941Z,96.60
2017-08-24T02:30:06.712Z,96.60
2017-08-24T02:32:37.164Z,96.40
2017-08-24T02:35:06.823Z,96.20
2017-08-24T02:37:35.704Z,96.40
2017-08-24T02:40:05.526Z,96.40
2017-08-24T02:42:34.343Z,96.30
2017-08-24T02:45:03.206Z,96.20
2017-08-24T02:47:31.837Z,96.30
2017-08-24T02:50:00.619Z,96.30
2017-08-24T02:52:29.507Z,96.30
2017-08-24T02:54:58.380Z,96.20
2017-08-24T02:57:27.875Z,96.30
2017-08-24T02:59:56.852Z,96.50
2017-08-24T03:02:26.578Z,96.70
2017-08-24T03:04:56.593Z,96.50
2017-08-24T03:07:25.074Z,96.40
2017-08-24T03:09:53.686Z,96.50
2017-08-24T03:12:22.421Z,96.60
2017-08-24T03:14:51.131Z,96.70
2017-08-24T03:17:19.807Z,96.70
2017-08-24T03:19:50.408Z,96.90
2017-08-24T03:22:19.081Z,96.90
2017-08-24T03:24:47.979Z,97.00
2017-08-24T03:27:17.755Z,96.90
2017-08-24T03:29:46.596Z,97.10
2017-08-24T03:32:16.482Z,97.10
2017-08-24T03:34:46.960Z,97.30
2017-08-24T03:37:16.038Z,97.30
2017-08-24T03:39:44.604Z,97.30
2017-08-24T03:42:14.419Z,97.40
2017-08-24T03:44:43.262Z,97.40
2017-08-24T03:47:12.484Z,97.30
2017-08-24T03:49:41.083Z,97.20
2017-08-24T03:52:09.647Z,97.30
2017-08-24T03:54:38.312Z,97.50
2017-08-24T03:57:07.027Z,97.60
2017-08-24T03:59:36.558Z,97.50
2017-08-24T04:02:05.141Z,97.20
2017-08-24T04:04:33.908Z,97.60
2017-08-24T04:07:02.444Z,97.60
2017-08-24T04:09:31.215Z,97.60
2017-08-24T04:12:00.529Z,97.70
2017-08-24T04:14:30.186Z,97.70
2017-08-24T04:16:58.968Z,97.60
2017-08-24T04:19:28.195Z,97.70
2017-08-24T04:21:58.770Z,97.90
2017-08-24T04:24:27.256Z,97.90
2017-08-24T04:26:55.664Z,98.10
2017-08-24T04:29:24.307Z,98.10
2017-08-24T04:31:53.820Z,98.60
2017-08-24T04:34:22.671Z,98.30
2017-08-24T04:36:52.238Z,98.40
2017-08-24T04:39:21.814Z,98.30
2017-08-24T04:41:50.661Z,98.30
2017-08-24T04:44:19.712Z,98.10
2017-08-24T04:46:48.597Z,98.10
2017-08-24T04:49:17.511Z,98.10
2017-08-24T04:51:46.392Z,98.20
2017-08-24T04:54:14.817Z,98.20
2017-08-24T04:56:43.245Z,98.10
2017-08-24T04:59:11.732Z,98.00
2017-08-24T05:01:40.156Z,98.10
2017-08-24T05:04:08.632Z,98.00
2017-08-24T05:06:37.061Z,97.90
2017-08-24T05:09:06.270Z,97.70
2017-08-24T05:11:34.716Z,97.70
2017-08-24T05:14:03.930Z,97.80
2017-08-24T05:16:32.363Z,97.80
2017-08-24T05:19:00.861Z,97.50
2017-08-24T05:21:29.351Z,97.60
2017-08-24T05:23:58.578Z,97.60
2017-08-24T05:26:27.214Z,97.30
2017-08-24T05:28:56.672Z,97.50
2017-08-24T05:31:25.401Z,97.30
2017-08-24T05:33:53.970Z,97.50
2017-08-24T05:36:22.427Z,97.30
2017-08-24T05:38:51.142Z,97.00
2017-08-24T05:41:20.827Z,96.60
2017-08-24T05:43:49.539Z,96.60
2017-08-24T05:46:19.346Z,96.70
2017-08-24T05:48:49.228Z,96.60
2017-08-24T05:51:18.191Z,96.50
2017-08-24T05:53:47.872Z,96.50
2017-08-24T05:56:17.938Z,96.10
2017-08-24T05:58:46.493Z,96.00
2017-08-24T06:01:15.246Z,96.10
2017-08-24T06:03:43.712Z,96.00
2017-08-24T06:06:12.817Z,96.00
2017-08-24T06:08:41.257Z,96.10
2017-08-24T06:11:10.857Z,96.20
2017-08-24T06:13:40.397Z,96.00
2017-08-24T06:16:09.241Z,95.80
2017-08-24T06:18:38.026Z,95.70
2017-08-24T06:21:06.833Z,95.90
2017-08-24T06:23:35.416Z,95.90
2017-08-24T06:26:03.971Z,95.80
2017-08-24T06:28:34.158Z,95.60
2017-08-24T06:31:02.886Z,95.60
2017-08-24T06:33:32.569Z,95.50
2017-08-24T06:36:02.453Z,95.40
2017-08-24T06:38:31.568Z,95.30
2017-08-24T06:41:01.727Z,95.50
2017-08-24T06:43:31.274Z,95.40
2017-08-24T06:46:00.180Z,95.40
2017-08-24T06:48:29.962Z,95.50
2017-08-24T06:50:58.472Z,94.90
2017-08-24T06:53:26.958Z,94.50
2017-08-24T06:55:55.412Z,94.20
2017-08-24T06:58:26.409Z,93.70
2017-08-24T07:00:56.006Z,93.20
2017-08-24T07:03:25.228Z,92.90
2017-08-24T07:05:54.094Z,93.10
2017-08-24T07:08:22.969Z,92.80
2017-08-24T07:10:52.662Z,92.60
2017-08-24T07:13:23.642Z,92.00
2017-08-24T07:15:52.871Z,92.30
2017-08-24T07:18:21.420Z,91.70
2017-08-24T07:20:50.073Z,91.10
2017-08-24T07:23:20.023Z,91.20
2017-08-24T07:25:49.798Z,91.20
2017-08-24T07:28:18.559Z,91.20
2017-08-24T07:30:47.511Z,91.00
2017-08-24T07:33:16.456Z,90.40
2017-08-24T07:35:46.390Z,90.60
2017-08-24T07:38:15.002Z,90.50
2017-08-24T07:40:43.822Z,90.20
2017-08-24T07:43:13.930Z,89.60
2017-08-24T07:45:42.671Z,88.60
2017-08-24T07:48:12.109Z,87.30
2017-08-24T07:50:41.604Z,89.00
2017-08-24T07:53:11.330Z,89.00
2017-08-24T07:55:40.055Z,88.20
2017-08-24T07:58:09.021Z,86.30
2017-08-24T08:00:37.903Z,87.20
2017-08-24T08:03:07.671Z,86.80
2017-08-24T08:05:38.009Z,81.50
2017-08-24T08:08:06.534Z,80.30
2017-08-24T08:10:36.118Z,79.10
2017-08-24T08:13:06.272Z,79.50
2017-08-24T08:15:35.159Z,77.40
2017-08-24T08:18:04.101Z,76.60
2017-08-24T08:20:34.453Z,75.10
2017-08-24T08:23:04.295Z,75.00
2017-08-24T08:25:33.154Z,74.30
2017-08-24T08:28:03.225Z,73.40
2017-08-24T08:30:32.735Z,71.90
2017-08-24T08:33:02.465Z,68.10
2017-08-24T08:35:32.336Z,67.90
2017-08-24T08:38:01.732Z,67.20
2017-08-24T08:40:34.100Z,67.20
2017-08-24T08:43:03.849Z,67.70
2017-08-24T08:45:33.879Z,68.20
2017-08-24T08:48:03.063Z,68.40
2017-08-24T08:50:31.523Z,68.40
2017-08-24T08:52:59.968Z,69.80
2017-08-24T08:55:29.292Z,70.70
2017-08-24T08:57:57.981Z,70.60
2017-08-24T09:00:28.166Z,72.10
2017-08-24T09:02:56.642Z,73.10
2017-08-24T09:05:25.193Z,70.80
2017-08-24T09:07:55.394Z,69.60
2017-08-24T09:10:24.508Z,69.20
2017-08-24T09:12:53.029Z,69.00
2017-08-24T09:15:21.459Z,70.90
2017-08-24T09:17:49.999Z,71.30
2017-08-24T09:20:21.649Z,72.30
2017-08-24T09:22:50.675Z,71.10
2017-08-24T09:25:19.227Z,72.10
2017-08-24T09:27:48.688Z,70.40
2017-08-24T09:30:17.742Z,68.70
2017-08-24T09:32:46.157Z,70.50
2017-08-24T09:35:15.307Z,69.20
2017-08-24T09:37:46.843Z,69.60
2017-08-24T09:40:16.234Z,70.70
2017-08-24T09:42:45.792Z,69.80
2017-08-24T09:45:14.807Z,70.20
2017-08-24T09:47:43.844Z,69.10
2017-08-24T09:50:12.449Z,69.90
2017-08-24T09:52:41.335Z,70.70
2017-08-24T09:55:11.335Z,70.40
2017-08-24T09:57:39.906Z,69.60
2017-08-24T10:00:08.977Z,68.70
2017-08-24T10:02:37.428Z,70.00
2017-08-24T10:05:08.430Z,70.70
2017-08-24T10:07:37.876Z,71.90
2017-08-24T10:10:06.848Z,70.20
2017-08-24T10:12:35.540Z,69.30
2017-08-24T10:15:04.220Z,70.20
2017-08-24T10:17:33.019Z,69.00
2017-08-24T10:20:05.132Z,67.80
2017-08-24T10:22:34.131Z,66.70
2017-08-24T10:25:03.517Z,66.60
2017-08-24T10:27:32.852Z,65.40
2017-08-24T10:30:02.143Z,67.20
2017-08-24T10:32:33.108Z,65.20
2017-08-24T10:35:02.916Z,63.30
2017-08-24T10:37:32.703Z,63.20
2017-08-24T10:40:01.426Z,64.80
2017-08-24T10:42:32.326Z,66.50
2017-08-24T10:45:01.978Z,66.90
2017-08-24T10:47:32.886Z,66.20
2017-08-24T10:50:03.034Z,65.30
2017-08-24T10:52:32.221Z,65.70
2017-08-24T10:55:01.746Z,65.80
2017-08-24T10:57:31.422Z,67.10
2017-08-24T11:00:00.882Z,65.10
2017-08-24T11:02:29.386Z,64.50
2017-08-24T11:04:59.786Z,64.10
2017-08-24T11:07:28.205Z,64.00
2017-08-24T11:09:56.790Z,65.10
2017-08-24T11:12:25.679Z,64.00
2017-08-24T11:14:57.310Z,62.90
2017-08-24T11:17:25.748Z,62.90
2017-08-24T11:19:54.572Z,61.40
2017-08-24T11:22:25.049Z,62.80
2017-08-24T11:24:56.666Z,61.20
2017-08-24T11:27:25.935Z,60.90
2017-08-24T11:29:54.774Z,58.60
2017-08-24T11:32:25.149Z,60.80
2017-08-24T11:34:56.510Z,62.70
2017-08-24T11:37:29.223Z,63.50
2017-08-24T11:40:00.160Z,62.40
2017-08-24T11:42:29.711Z,64.80
2017-08-24T11:44:58.793Z,64.70
2017-08-24T11:47:30.341Z,65.50
2017-08-24T11:49:59.059Z,66.30
2017-08-24T11:52:30.111Z,63.50
2017-08-24T11:54:59.110Z,64.00
2017-08-24T11:57:27.921Z,63.90
2017-08-24T11:59:56.913Z,63.50
2017-08-24T12:02:27.347Z,63.10
2017-08-24T12:04:56.395Z,63.80
2017-08-24T12:07:24.876Z,63.30
2017-08-24T12:09:55.768Z,62.00
2017-08-24T12:12:29.093Z,63.50
2017-08-24T12:14:59.172Z,63.40
2017-08-24T12:17:30.887Z,61.40
2017-08-24T12:19:59.801Z,62.70
2017-08-24T12:22:28.367Z,63.50
2017-08-24T12:24:57.761Z,63.20
2017-08-24T12:27:27.496Z,63.40
2017-08-24T12:32:32.529Z,61.40
2017-08-24T12:35:01.322Z,61.90
2017-08-24T12:37:30.099Z,62.80
2017-08-24T12:40:03.597Z,63.20
2017-08-24T12:42:32.404Z,61.60
2017-08-24T12:45:01.301Z,63.20
2017-08-24T12:47:29.805Z,60.60
2017-08-24T12:50:00.312Z,62.50
2017-08-24T12:52:29.348Z,63.30
2017-08-24T12:54:58.901Z,60.70
2017-08-24T12:57:29.227Z,62.00
2017-08-24T12:59:59.112Z,60.60
2017-08-24T13:02:28.241Z,59.90
2017-08-24T13:04:57.299Z,61.70
2017-08-24T13:07:26.747Z,61.00
2017-08-24T13:09:55.901Z,60.80
2017-08-24T13:12:24.363Z,59.20
2017-08-24T13:14:52.913Z,60.40
2017-08-24T13:17:21.409Z,60.80
2017-08-24T13:19:51.041Z,58.30
2017-08-24T13:22:21.883Z,58.30
2017-08-24T13:24:52.457Z,59.00
2017-08-24T13:27:23.908Z,58.90
2017-08-24T13:29:53.698Z,58.30
2017-08-24T13:32:23.027Z,56.90
2017-08-24T13:34:51.543Z,56.90
2017-08-24T13:37:20.463Z,56.30
2017-08-24T13:39:49.813Z,55.70
2017-08-24T13:42:18.750Z,55.70
2017-08-24T13:44:48.829Z,55.90
2017-08-24T13:47:18.028Z,57.30
2017-08-24T13:49:46.512Z,55.70
2017-08-24T13:52:15.236Z,56.90
2017-08-24T13:54:44.204Z,56.30
2017-08-24T13:57:12.931Z,56.80
2017-08-24T13:59:42.208Z,55.10
2017-08-24T14:02:11.899Z,55.00
2017-08-24T14:04:40.416Z,54.80
2017-08-24T14:07:09.838Z,57.70
2017-08-24T14:09:38.413Z,57.70
2017-08-24T14:12:06.984Z,57.70
2017-08-24T14:14:37.570Z,57.20
2017-08-24T14:17:06.117Z,57.10
2017-08-24T14:19:35.475Z,56.20
2017-08-24T14:22:04.363Z,55.30
2017-08-24T14:24:33.144Z,55.00
2017-08-24T14:27:03.213Z,58.50
2017-08-24T14:29:33.192Z,58.50
2017-08-24T14:32:01.988Z,56.50
2017-08-24T14:34:30.749Z,56.50
2017-08-24T14:37:02.131Z,54.90
2017-08-24T14:39:30.626Z,55.80
2017-08-24T14:42:00.384Z,55.60
2017-08-24T14:44:30.006Z,55.60
2017-08-24T14:46:59.393Z,55.60
2017-08-24T14:49:29.060Z,56.30
2017-08-24T14:51:57.638Z,58.00
2017-08-24T14:54:26.509Z,58.90
2017-08-24T14:56:55.541Z,57.30
2017-08-24T14:59:26.279Z,57.70
2017-08-24T15:01:57.755Z,57.50
2017-08-24T15:04:26.236Z,58.10
2017-08-24T15:06:54.767Z,57.40
2017-08-24T15:09:24.891Z,57.50
2017-08-24T15:11:53.603Z,57.60
2017-08-24T15:14:23.013Z,57.00
2017-08-24T15:16:51.989Z,57.50
2017-08-24T15:19:23.495Z,57.60
2017-08-24T15:21:53.234Z,57.10
2017-08-24T15:24:22.374Z,56.70
2017-08-24T15:26:51.584Z,56.40
2017-08-24T15:29:21.347Z,56.70
2017-08-24T15:31:50.707Z,56.50
2017-08-24T15:34:21.772Z,56.30
2017-08-24T15:36:51.214Z,56.10
2017-08-24T15:39:20.935Z,56.70
2017-08-24T15:41:50.417Z,57.00
2017-08-24T15:44:19.742Z,57.40
2017-08-24T15:46:48.700Z,57.90
2017-08-24T15:49:17.403Z,57.70
2017-08-24T15:51:47.068Z,57.60
2017-08-24T15:54:16.814Z,58.10
2017-08-24T15:56:47.749Z,58.20
2017-08-24T15:59:16.901Z,57.00
2017-08-24T16:01:47.000Z,58.40
2017-08-24T16:04:16.024Z,58.70
2017-08-24T16:06:44.583Z,58.50
2017-08-24T16:09:13.750Z,58.30
2017-08-24T16:11:42.734Z,59.10
2017-08-24T16:14:12.462Z,59.90
2017-08-24T16:16:41.170Z,59.80
2017-08-24T16:19:09.604Z,59.60
2017-08-24T16:21:39.454Z,60.30
2017-08-24T16:24:08.293Z,59.10
2017-08-24T16:26:36.727Z,60.40
2017-08-24T16:29:06.208Z,61.00
2017-08-24T16:31:34.925Z,61.50
2017-08-24T16:34:03.797Z,61.70
2017-08-24T16:36:33.133Z,61.70
2017-08-24T16:39:03.041Z,62.00
2017-08-24T16:41:32.877Z,61.90
2017-08-24T16:44:01.900Z,61.60
2017-08-24T16:46:31.949Z,61.80
2017-08-24T16:49:00.555Z,62.00
2017-08-24T16:51:30.823Z,62.20
2017-08-24T16:53:59.720Z,62.50
2017-08-24T16:56:30.854Z,60.90
2017-08-24T16:58:59.736Z,61.50
2017-08-24T17:01:30.566Z,62.20
2017-08-24T17:04:00.880Z,62.20
2017-08-24T17:06:29.620Z,62.60
2017-08-24T17:08:59.535Z,62.30
2017-08-24T17:11:28.575Z,63.40
2017-08-24T17:13:57.392Z,62.30
2017-08-24T17:16:27.728Z,61.10
2017-08-24T17:18:58.420Z,61.90
2017-08-24T17:21:27.648Z,62.80
2017-08-24T17:23:56.160Z,62.70
2017-08-24T17:26:25.630Z,63.00
2017-08-24T17:28:54.088Z,62.30
2017-08-24T17:31:22.522Z,63.20
2017-08-24T17:33:51.043Z,63.90
2017-08-24T17:36:19.501Z,63.70
2017-08-24T17:38:47.946Z,64.30
2017-08-24T17:41:16.474Z,64.70
2017-08-24T17:43:44.974Z,64.50
2017-08-24T17:46:13.435Z,64.20
2017-08-24T17:48:41.859Z,64.20
2017-08-24T17:51:10.285Z,64.70
2017-08-24T17:53:38.797Z,64.70
2017-08-24T17:56:09.400Z,65.00
2017-08-24T17:58:37.870Z,65.00
2017-08-24T18:01:06.298Z,65.20
2017-08-24T18:03:35.609Z,65.30
2017-08-24T18:06:04.329Z,65.90
2017-08-24T18:08:33.813Z,66.20
2017-08-24T18:11:04.646Z,66.80
2017-08-24T18:13:34.304Z,67.30
2017-08-24T18:16:02.883Z,67.90
2017-08-24T18:18:31.716Z,67.20
2017-08-24T18:21:02.044Z,66.90
2017-08-24T18:23:30.611Z,66.90
2017-08-24T18:25:59.180Z,67.80
2017-08-24T18:28:27.616Z,69.40
2017-08-24T18:30:57.714Z,74.10
2017-08-24T18:33:26.244Z,74.10
2017-08-24T18:35:55.014Z,74.60
2017-08-24T18:38:23.515Z,75.10
2017-08-24T18:40:52.120Z,75.40
2017-08-24T18:43:20.901Z,75.10
2017-08-24T18:45:51.358Z,74.70
2017-08-24T18:48:20.934Z,74.90
2017-08-24T18:50:49.592Z,75.10
2017-08-24T18:53:18.342Z,75.80
2017-08-24T18:55:48.384Z,77.00
2017-08-24T18:58:19.648Z,78.10
2017-08-24T19:00:48.351Z,78.90
2017-08-24T19:03:17.318Z,79.40
2017-08-24T19:05:45.867Z,79.90
2017-08-24T19:08:15.431Z,80.50
2017-08-24T19:10:45.520Z,80.60
2017-08-24T19:13:14.807Z,81.10
2017-08-24T19:15:43.990Z,81.10
2017-08-24T19:18:12.532Z,81.40
2017-08-24T19:20:41.302Z,81.60
2017-08-24T19:23:11.521Z,82.00
2017-08-24T19:25:41.106Z,82.60
2017-08-24T19:28:11.091Z,84.00
2017-08-24T19:30:40.337Z,84.00
2017-08-24T19:33:10.017Z,83.80
2017-08-24T19:35:41.904Z,83.50
2017-08-24T19:38:12.680Z,83.60
2017-08-24T19:40:41.272Z,83.50
2017-08-24T19:43:10.172Z,83.50
2017-08-24T19:45:39.070Z,84.10
2017-08-24T19:48:09.950Z,84.30
2017-08-24T19:50:39.633Z,85.10
2017-08-24T19:53:09.164Z,85.10
2017-08-24T19:55:38.779Z,85.40
2017-08-24T19:58:07.697Z,85.50
2017-08-24T20:00:36.565Z,85.50
2017-08-24T20:03:05.419Z,85.80
2017-08-24T20:05:35.045Z,86.50
2017-08-24T20:08:04.225Z,86.80
2017-08-24T20:10:34.803Z,88.00
2017-08-24T20:13:06.616Z,88.60
2017-08-24T20:15:35.406Z,88.70
2017-08-24T20:18:04.938Z,89.70
2017-08-24T20:20:33.455Z,88.90
2017-08-24T20:23:03.899Z,89.50
2017-08-24T20:25:32.919Z,89.80
2017-08-24T20:28:02.179Z,89.90
2017-08-24T20:30:32.011Z,90.10
2017-08-24T20:33:00.438Z,90.10
2017-08-24T20:35:30.128Z,90.10
2017-08-24T20:37:59.108Z,90.10
2017-08-24T20:40:28.921Z,90.30
2017-08-24T20:42:57.758Z,90.20
2017-08-24T20:45:26.808Z,90.30
2017-08-24T20:47:55.491Z,90.40
2017-08-24T20:50:25.140Z,90.50
2017-08-24T20:52:54.033Z,90.60
2017-08-24T20:55:24.328Z,90.90
2017-08-24T20:57:54.350Z,90.80
2017-08-24T21:00:23.347Z,90.90
2017-08-24T21:02:52.301Z,90.70
2017-08-24T21:05:22.335Z,90.90
2017-08-24T21:07:51.065Z,91.50
2017-08-24T21:10:19.875Z,90.80
2017-08-24T21:12:48.661Z,90.80
2017-08-24T21:15:17.501Z,91.10
2017-08-24T21:17:47.858Z,91.40
2017-08-24T21:20:17.625Z,92.00
2017-08-24T21:22:47.499Z,92.30
2017-08-24T21:25:16.468Z,92.30
2017-08-24T21:27:46.446Z,92.60
2017-08-24T21:30:15.007Z,92.80
2017-08-24T21:32:44.544Z,92.90
2017-08-24T21:35:13.533Z,92.90
2017-08-24T21:37:43.280Z,92.80
2017-08-24T21:40:12.197Z,92.90
2017-08-24T21:45:57.490Z,93.20
2017-08-24T21:48:27.425Z,93.40
2017-08-24T21:50:56.816Z,93.50
2017-08-24T21:53:25.990Z,93.50
2017-08-24T21:55:55.663Z,93.40
2017-08-24T22:01:15.445Z,93.50
2017-08-24T22:03:43.864Z,93.50
2017-08-24T22:06:12.974Z,93.40
2017-08-24T22:08:43.110Z,93.60
2017-08-24T22:11:12.386Z,93.50
2017-08-24T22:13:42.549Z,93.60
2017-08-24T22:16:13.985Z,94.10
2017-08-24T22:18:43.441Z,94.10
2017-08-24T22:21:12.288Z,94.20
2017-08-24T22:23:40.917Z,94.20
2017-08-24T22:26:09.794Z,94.30
2017-08-24T22:28:38.195Z,94.40
2017-08-24T22:31:07.346Z,94.90
2017-08-24T22:33:36.060Z,94.90
2017-08-24T22:36:04.466Z,95.00
2017-08-24T22:38:33.361Z,95.30
2017-08-24T22:41:02.464Z,95.00
2017-08-24T22:43:31.442Z,95.30
2017-08-24T22:46:00.845Z,95.10
2017-08-24T22:48:29.339Z,95.00
2017-08-24T22:50:57.761Z,94.70
2017-08-24T22:53:33.756Z,94.60
2017-08-24T22:59:11.021Z,94.40
2017-08-24T23:01:45.185Z,94.70
2017-08-24T23:04:15.051Z,94.80
2017-08-24T23:06:43.872Z,94.80
2017-08-24T23:09:12.314Z,94.70
2017-08-24T23:11:41.922Z,94.70
2017-08-24T23:14:11.093Z,94.70
2017-08-24T23:16:39.584Z,94.70
2017-08-24T23:19:08.163Z,94.70
2017-08-24T23:21:36.998Z,94.80
2017-08-24T23:24:05.507Z,94.80
2017-08-24T23:26:33.885Z,94.80
2017-08-24T23:29:03.053Z,94.70
2017-08-24T23:31:32.103Z,94.90
2017-08-24T23:34:00.878Z,95.00
2017-08-24T23:36:29.527Z,95.20
2017-08-24T23:38:58.023Z,95.30
2017-08-24T23:41:26.896Z,95.30
2017-08-24T23:43:55.822Z,95.30
2017-08-24T23:46:24.688Z,95.30
2017-08-24T23:48:53.159Z,95.30
2017-08-24T23:51:21.577Z,95.40
2017-08-24T23:53:49.997Z,95.40
2017-08-24T23:56:19.327Z,95.60
2017-08-24T23:58:47.811Z,95.50
